sensor_id;sensor_type;location;lat;lon;timestamp;P1;durP1;ratioP1;P2;durP2;ratioP2
32705;SDS011;19094;50.972;3.538;2023-02-18T00:01:26;13.98;;;7.53;;
32705;SDS011;19094;50.972;3.538;2023-02-18T00:03:54;13.50;;;7.55;;
32705;SDS011;19094;50.972;3.538;2023-02-18T00:06:23;14.40;;;8.32;;
32705;SDS011;19094;50.972;3.538;2023-02-18T00:08:51;17.13;;;9.18;;
32705;SDS011;19094;50.972;3.538;2023-02-18T00:11:17;19.25;;;10.00;;
32705;SDS011;19094;50.972;3.538;2023-02-18T00:13:52;21.25;;;10.00;;
32705;SDS011;19094;50.972;3.538;2023-02-18T00:16:19;19.65;;;10.13;;
32705;SDS011;19094;50.972;3.538;2023-02-18T00:18:45;20.30;;;10.55;;
32705;SDS011;19094;50.972;3.538;2023-02-18T00:21:11;18.88;;;10.27;;
32705;SDS011;19094;50.972;3.538;2023-02-18T00:23:38;17.25;;;9.95;;
32705;SDS011;19094;50.972;3.538;2023-02-18T00:26:13;19.85;;;9.60;;
32705;SDS011;19094;50.972;3.538;2023-02-18T00:28:40;19.42;;;9.88;;
32705;SDS011;19094;50.972;3.538;2023-02-18T00:31:07;25.23;;;10.93;;
32705;SDS011;19094;50.972;3.538;2023-02-18T00:33:35;19.30;;;9.43;;
32705;SDS011;19094;50.972;3.538;2023-02-18T00:36:06;18.27;;;9.63;;
32705;SDS011;19094;50.972;3.538;2023-02-18T00:38:35;17.05;;;9.60;;
32705;SDS011;19094;50.972;3.538;2023-02-18T00:41:01;16.05;;;9.55;;
32705;SDS011;19094;50.972;3.538;2023-02-18T00:43:27;18.35;;;9.98;;
32705;SDS011;19094;50.972;3.538;2023-02-18T00:45:53;23.15;;;10.15;;
32705;SDS011;19094;50.972;3.538;2023-02-18T00:48:18;21.45;;;10.10;;
32705;SDS011;19094;50.972;3.538;2023-02-18T00:50:44;17.83;;;9.93;;
32705;SDS011;19094;50.972;3.538;2023-02-18T00:53:10;17.30;;;9.00;;
32705;SDS011;19094;50.972;3.538;2023-02-18T00:55:40;21.58;;;9.50;;
32705;SDS011;19094;50.972;3.538;2023-02-18T00:58:13;18.35;;;9.40;;
32705;SDS011;19094;50.972;3.538;2023-02-18T01:00:40;19.20;;;9.65;;
32705;SDS011;19094;50.972;3.538;2023-02-18T01:03:06;18.63;;;9.13;;
32705;SDS011;19094;50.972;3.538;2023-02-18T01:05:32;15.77;;;8.52;;
32705;SDS011;19094;50.972;3.538;2023-02-18T01:07:58;17.77;;;7.72;;
32705;SDS011;19094;50.972;3.538;2023-02-18T01:10:23;17.50;;;8.95;;
32705;SDS011;19094;50.972;3.538;2023-02-18T01:12:49;19.33;;;8.65;;
32705;SDS011;19094;50.972;3.538;2023-02-18T01:15:15;20.50;;;9.52;;
32705;SDS011;19094;50.972;3.538;2023-02-18T01:17:41;17.42;;;8.35;;
32705;SDS011;19094;50.972;3.538;2023-02-18T01:20:07;16.48;;;8.95;;
32705;SDS011;19094;50.972;3.538;2023-02-18T01:22:34;20.80;;;9.25;;
32705;SDS011;19094;50.972;3.538;2023-02-18T01:25:00;17.92;;;9.43;;
32705;SDS011;19094;50.972;3.538;2023-02-18T01:27:26;16.95;;;9.70;;
32705;SDS011;19094;50.972;3.538;2023-02-18T01:29:51;15.82;;;7.72;;
32705;SDS011;19094;50.972;3.538;2023-02-18T01:32:17;13.88;;;7.07;;
32705;SDS011;19094;50.972;3.538;2023-02-18T01:34:43;12.73;;;7.28;;
32705;SDS011;19094;50.972;3.538;2023-02-18T01:37:08;13.52;;;7.00;;
32705;SDS011;19094;50.972;3.538;2023-02-18T01:39:34;12.02;;;6.57;;
32705;SDS011;19094;50.972;3.538;2023-02-18T01:42:00;15.23;;;6.70;;
32705;SDS011;19094;50.972;3.538;2023-02-18T01:44:26;12.50;;;6.07;;
32705;SDS011;19094;50.972;3.538;2023-02-18T01:46:52;12.02;;;6.43;;
32705;SDS011;19094;50.972;3.538;2023-02-18T01:49:20;14.15;;;6.40;;
32705;SDS011;19094;50.972;3.538;2023-02-18T01:51:55;11.93;;;6.43;;
32705;SDS011;19094;50.972;3.538;2023-02-18T01:54:31;11.60;;;6.72;;
32705;SDS011;19094;50.972;3.538;2023-02-18T01:59:48;11.00;;;6.22;;
32705;SDS011;19094;50.972;3.538;2023-02-18T02:02:18;15.52;;;6.43;;
32705;SDS011;19094;50.972;3.538;2023-02-18T02:04:45;12.98;;;6.65;;
32705;SDS011;19094;50.972;3.538;2023-02-18T02:07:12;12.25;;;6.07;;
32705;SDS011;19094;50.972;3.538;2023-02-18T02:09:39;12.70;;;5.57;;
32705;SDS011;19094;50.972;3.538;2023-02-18T02:36:31;8.48;;;4.07;;
32705;SDS011;19094;50.972;3.538;2023-02-18T02:41:48;6.18;;;3.45;;
32705;SDS011;19094;50.972;3.538;2023-02-18T02:44:35;9.35;;;3.30;;
32705;SDS011;19094;50.972;3.538;2023-02-18T02:47:13;7.72;;;4.05;;
32705;SDS011;19094;50.972;3.538;2023-02-18T02:49:49;8.10;;;3.47;;
32705;SDS011;19094;50.972;3.538;2023-02-18T02:52:39;9.13;;;3.85;;
32705;SDS011;19094;50.972;3.538;2023-02-18T02:55:10;7.40;;;3.70;;
32705;SDS011;19094;50.972;3.538;2023-02-18T02:57:41;7.03;;;3.63;;
32705;SDS011;19094;50.972;3.538;2023-02-18T03:00:09;8.32;;;4.28;;
32705;SDS011;19094;50.972;3.538;2023-02-18T03:02:48;7.75;;;3.72;;
32705;SDS011;19094;50.972;3.538;2023-02-18T03:05:23;8.77;;;3.67;;
32705;SDS011;19094;50.972;3.538;2023-02-18T03:18:51;7.18;;;4.38;;
32705;SDS011;19094;50.972;3.538;2023-02-18T03:21:28;9.35;;;4.15;;
32705;SDS011;19094;50.972;3.538;2023-02-18T03:24:02;5.47;;;3.38;;
32705;SDS011;19094;50.972;3.538;2023-02-18T03:26:52;5.65;;;3.42;;
32705;SDS011;19094;50.972;3.538;2023-02-18T03:29:23;7.05;;;4.03;;
32705;SDS011;19094;50.972;3.538;2023-02-18T03:31:54;6.93;;;3.65;;
32705;SDS011;19094;50.972;3.538;2023-02-18T03:34:34;4.63;;;3.15;;
32705;SDS011;19094;50.972;3.538;2023-02-18T03:37:10;3.83;;;2.65;;
32705;SDS011;19094;50.972;3.538;2023-02-18T03:39:38;4.07;;;2.53;;
32705;SDS011;19094;50.972;3.538;2023-02-18T03:42:08;3.60;;;2.47;;
32705;SDS011;19094;50.972;3.538;2023-02-18T03:44:33;4.57;;;2.50;;
32705;SDS011;19094;50.972;3.538;2023-02-18T03:46:59;2.95;;;2.17;;
32705;SDS011;19094;50.972;3.538;2023-02-18T03:49:25;4.53;;;2.03;;
32705;SDS011;19094;50.972;3.538;2023-02-18T03:51:50;3.55;;;1.98;;
32705;SDS011;19094;50.972;3.538;2023-02-18T03:54:16;5.05;;;1.83;;
32705;SDS011;19094;50.972;3.538;2023-02-18T03:56:42;4.07;;;1.88;;
32705;SDS011;19094;50.972;3.538;2023-02-18T03:59:08;3.00;;;2.13;;
32705;SDS011;19094;50.972;3.538;2023-02-18T04:01:34;2.85;;;2.35;;
32705;SDS011;19094;50.972;3.538;2023-02-18T04:03:59;5.20;;;2.53;;
32705;SDS011;19094;50.972;3.538;2023-02-18T04:06:27;4.88;;;2.50;;
32705;SDS011;19094;50.972;3.538;2023-02-18T04:08:52;6.30;;;2.70;;
32705;SDS011;19094;50.972;3.538;2023-02-18T04:11:18;4.85;;;2.90;;
32705;SDS011;19094;50.972;3.538;2023-02-18T04:13:44;3.90;;;2.45;;
32705;SDS011;19094;50.972;3.538;2023-02-18T04:16:09;5.68;;;2.80;;
32705;SDS011;19094;50.972;3.538;2023-02-18T04:18:35;4.72;;;2.58;;
32705;SDS011;19094;50.972;3.538;2023-02-18T04:21:01;3.67;;;2.78;;
32705;SDS011;19094;50.972;3.538;2023-02-18T04:23:26;5.25;;;3.25;;
32705;SDS011;19094;50.972;3.538;2023-02-18T04:25:52;4.85;;;2.70;;
32705;SDS011;19094;50.972;3.538;2023-02-18T04:28:18;5.47;;;3.00;;
32705;SDS011;19094;50.972;3.538;2023-02-18T04:30:44;6.55;;;3.03;;
32705;SDS011;19094;50.972;3.538;2023-02-18T04:33:10;6.72;;;2.70;;
32705;SDS011;19094;50.972;3.538;2023-02-18T04:35:36;2.67;;;2.20;;
32705;SDS011;19094;50.972;3.538;2023-02-18T04:38:04;4.07;;;2.33;;
32705;SDS011;19094;50.972;3.538;2023-02-18T04:40:31;5.97;;;2.80;;
32705;SDS011;19094;50.972;3.538;2023-02-18T04:42:57;3.70;;;2.33;;
32705;SDS011;19094;50.972;3.538;2023-02-18T04:45:24;4.03;;;2.22;;
32705;SDS011;19094;50.972;3.538;2023-02-18T04:47:50;7.30;;;2.50;;
32705;SDS011;19094;50.972;3.538;2023-02-18T04:50:16;5.57;;;2.45;;
32705;SDS011;19094;50.972;3.538;2023-02-18T04:52:42;8.27;;;2.92;;
32705;SDS011;19094;50.972;3.538;2023-02-18T04:55:08;8.95;;;3.05;;
32705;SDS011;19094;50.972;3.538;2023-02-18T04:57:34;6.40;;;2.40;;
32705;SDS011;19094;50.972;3.538;2023-02-18T04:59:59;15.00;;;4.00;;
32705;SDS011;19094;50.972;3.538;2023-02-18T05:02:25;12.48;;;4.38;;
32705;SDS011;19094;50.972;3.538;2023-02-18T05:04:51;11.45;;;4.72;;
32705;SDS011;19094;50.972;3.538;2023-02-18T05:07:16;11.30;;;3.50;;
32705;SDS011;19094;50.972;3.538;2023-02-18T05:09:42;15.95;;;5.05;;
32705;SDS011;19094;50.972;3.538;2023-02-18T05:12:08;13.95;;;4.85;;
32705;SDS011;19094;50.972;3.538;2023-02-18T05:14:33;13.25;;;4.93;;
32705;SDS011;19094;50.972;3.538;2023-02-18T05:16:59;11.32;;;3.83;;
32705;SDS011;19094;50.972;3.538;2023-02-18T05:19:25;17.08;;;4.03;;
32705;SDS011;19094;50.972;3.538;2023-02-18T05:21:50;11.23;;;2.97;;
32705;SDS011;19094;50.972;3.538;2023-02-18T05:24:16;13.32;;;3.38;;
32705;SDS011;19094;50.972;3.538;2023-02-18T05:26:42;11.75;;;2.42;;
32705;SDS011;19094;50.972;3.538;2023-02-18T05:29:08;11.65;;;2.90;;
32705;SDS011;19094;50.972;3.538;2023-02-18T05:31:33;19.35;;;3.80;;
32705;SDS011;19094;50.972;3.538;2023-02-18T05:33:59;29.52;;;3.67;;
32705;SDS011;19094;50.972;3.538;2023-02-18T05:36:24;20.85;;;3.25;;
32705;SDS011;19094;50.972;3.538;2023-02-18T05:38:50;11.77;;;2.20;;
32705;SDS011;19094;50.972;3.538;2023-02-18T05:41:16;16.77;;;3.42;;
32705;SDS011;19094;50.972;3.538;2023-02-18T05:43:41;15.75;;;2.97;;
32705;SDS011;19094;50.972;3.538;2023-02-18T05:46:26;17.63;;;3.78;;
32705;SDS011;19094;50.972;3.538;2023-02-18T05:48:51;19.92;;;3.13;;
32705;SDS011;19094;50.972;3.538;2023-02-18T05:51:17;16.73;;;2.22;;
32705;SDS011;19094;50.972;3.538;2023-02-18T05:53:43;18.10;;;3.08;;
32705;SDS011;19094;50.972;3.538;2023-02-18T05:56:08;10.27;;;2.15;;
32705;SDS011;19094;50.972;3.538;2023-02-18T05:58:34;12.23;;;2.50;;
32705;SDS011;19094;50.972;3.538;2023-02-18T06:01:00;16.00;;;3.53;;
32705;SDS011;19094;50.972;3.538;2023-02-18T06:03:25;13.93;;;2.35;;
32705;SDS011;19094;50.972;3.538;2023-02-18T06:05:51;18.48;;;3.03;;
32705;SDS011;19094;50.972;3.538;2023-02-18T06:08:17;18.25;;;3.30;;
32705;SDS011;19094;50.972;3.538;2023-02-18T06:10:44;13.43;;;1.98;;
32705;SDS011;19094;50.972;3.538;2023-02-18T06:13:10;7.50;;;2.08;;
32705;SDS011;19094;50.972;3.538;2023-02-18T06:15:36;15.60;;;2.25;;
32705;SDS011;19094;50.972;3.538;2023-02-18T06:18:02;14.98;;;2.03;;
32705;SDS011;19094;50.972;3.538;2023-02-18T06:20:28;13.90;;;2.17;;
32705;SDS011;19094;50.972;3.538;2023-02-18T06:22:53;19.38;;;3.00;;
32705;SDS011;19094;50.972;3.538;2023-02-18T06:25:19;11.40;;;2.00;;
32705;SDS011;19094;50.972;3.538;2023-02-18T06:27:45;21.88;;;3.47;;
32705;SDS011;19094;50.972;3.538;2023-02-18T06:30:10;20.58;;;2.58;;
32705;SDS011;19094;50.972;3.538;2023-02-18T06:32:36;9.18;;;1.85;;
32705;SDS011;19094;50.972;3.538;2023-02-18T06:35:02;12.25;;;2.83;;
32705;SDS011;19094;50.972;3.538;2023-02-18T06:37:28;10.35;;;2.00;;
32705;SDS011;19094;50.972;3.538;2023-02-18T06:39:53;19.98;;;3.35;;
32705;SDS011;19094;50.972;3.538;2023-02-18T06:42:19;13.95;;;2.00;;
32705;SDS011;19094;50.972;3.538;2023-02-18T06:44:45;16.23;;;2.00;;
32705;SDS011;19094;50.972;3.538;2023-02-18T06:47:10;12.63;;;2.20;;
32705;SDS011;19094;50.972;3.538;2023-02-18T06:49:36;15.30;;;2.25;;
32705;SDS011;19094;50.972;3.538;2023-02-18T06:52:03;17.98;;;2.25;;
32705;SDS011;19094;50.972;3.538;2023-02-18T06:54:29;13.40;;;2.85;;
32705;SDS011;19094;50.972;3.538;2023-02-18T06:56:55;14.70;;;3.15;;
32705;SDS011;19094;50.972;3.538;2023-02-18T06:59:22;17.27;;;3.03;;
32705;SDS011;19094;50.972;3.538;2023-02-18T07:01:49;12.77;;;2.80;;
32705;SDS011;19094;50.972;3.538;2023-02-18T07:04:14;8.98;;;3.42;;
32705;SDS011;19094;50.972;3.538;2023-02-18T07:06:40;13.80;;;2.65;;
32705;SDS011;19094;50.972;3.538;2023-02-18T07:09:06;10.68;;;2.65;;
32705;SDS011;19094;50.972;3.538;2023-02-18T07:11:31;8.02;;;2.42;;
32705;SDS011;19094;50.972;3.538;2023-02-18T07:13:57;10.50;;;1.83;;
32705;SDS011;19094;50.972;3.538;2023-02-18T07:16:23;12.15;;;2.03;;
32705;SDS011;19094;50.972;3.538;2023-02-18T07:18:48;17.13;;;2.45;;
32705;SDS011;19094;50.972;3.538;2023-02-18T07:21:14;13.10;;;2.05;;
32705;SDS011;19094;50.972;3.538;2023-02-18T07:23:39;13.50;;;2.50;;
32705;SDS011;19094;50.972;3.538;2023-02-18T07:26:09;14.77;;;2.30;;
32705;SDS011;19094;50.972;3.538;2023-02-18T07:28:36;6.90;;;1.48;;
32705;SDS011;19094;50.972;3.538;2023-02-18T07:31:02;21.08;;;3.08;;
32705;SDS011;19094;50.972;3.538;2023-02-18T07:33:28;15.32;;;2.00;;
32705;SDS011;19094;50.972;3.538;2023-02-18T07:35:55;15.23;;;2.22;;
32705;SDS011;19094;50.972;3.538;2023-02-18T07:38:22;18.02;;;2.60;;
32705;SDS011;19094;50.972;3.538;2023-02-18T07:40:49;14.60;;;2.35;;
32705;SDS011;19094;50.972;3.538;2023-02-18T07:43:15;12.07;;;2.33;;
32705;SDS011;19094;50.972;3.538;2023-02-18T07:45:41;12.73;;;2.08;;
32705;SDS011;19094;50.972;3.538;2023-02-18T07:48:07;15.68;;;2.63;;
32705;SDS011;19094;50.972;3.538;2023-02-18T07:50:33;16.77;;;2.33;;
32705;SDS011;19094;50.972;3.538;2023-02-18T07:53:05;14.20;;;1.85;;
32705;SDS011;19094;50.972;3.538;2023-02-18T07:55:31;9.15;;;1.80;;
32705;SDS011;19094;50.972;3.538;2023-02-18T07:58:21;14.02;;;2.33;;
32705;SDS011;19094;50.972;3.538;2023-02-18T08:00:50;9.65;;;1.67;;
32705;SDS011;19094;50.972;3.538;2023-02-18T08:03:17;17.52;;;2.10;;
32705;SDS011;19094;50.972;3.538;2023-02-18T08:05:44;22.58;;;2.80;;
32705;SDS011;19094;50.972;3.538;2023-02-18T08:08:13;15.98;;;2.58;;
32705;SDS011;19094;50.972;3.538;2023-02-18T08:10:39;13.05;;;2.00;;
32705;SDS011;19094;50.972;3.538;2023-02-18T08:13:05;11.68;;;2.45;;
32705;SDS011;19094;50.972;3.538;2023-02-18T08:15:31;16.25;;;2.53;;
32705;SDS011;19094;50.972;3.538;2023-02-18T08:17:57;10.43;;;2.20;;
32705;SDS011;19094;50.972;3.538;2023-02-18T08:20:22;21.08;;;1.90;;
32705;SDS011;19094;50.972;3.538;2023-02-18T08:22:48;9.20;;;2.08;;
32705;SDS011;19094;50.972;3.538;2023-02-18T08:25:14;12.57;;;2.67;;
32705;SDS011;19094;50.972;3.538;2023-02-18T08:27:39;16.30;;;2.20;;
32705;SDS011;19094;50.972;3.538;2023-02-18T08:30:05;15.25;;;2.67;;
32705;SDS011;19094;50.972;3.538;2023-02-18T08:32:31;13.18;;;2.00;;
32705;SDS011;19094;50.972;3.538;2023-02-18T08:34:57;12.38;;;2.30;;
32705;SDS011;19094;50.972;3.538;2023-02-18T08:37:23;15.13;;;1.70;;
32705;SDS011;19094;50.972;3.538;2023-02-18T08:39:49;13.77;;;2.13;;
32705;SDS011;19094;50.972;3.538;2023-02-18T08:42:15;14.27;;;2.55;;
32705;SDS011;19094;50.972;3.538;2023-02-18T08:44:40;16.92;;;2.40;;
32705;SDS011;19094;50.972;3.538;2023-02-18T08:47:06;11.23;;;2.13;;
32705;SDS011;19094;50.972;3.538;2023-02-18T08:49:32;13.15;;;1.80;;
32705;SDS011;19094;50.972;3.538;2023-02-18T08:51:57;8.38;;;1.48;;
32705;SDS011;19094;50.972;3.538;2023-02-18T08:54:23;7.35;;;1.60;;
32705;SDS011;19094;50.972;3.538;2023-02-18T08:56:49;14.80;;;2.65;;
32705;SDS011;19094;50.972;3.538;2023-02-18T08:59:19;10.13;;;2.25;;
32705;SDS011;19094;50.972;3.538;2023-02-18T09:01:45;11.68;;;2.05;;
32705;SDS011;19094;50.972;3.538;2023-02-18T09:04:10;15.93;;;2.08;;
32705;SDS011;19094;50.972;3.538;2023-02-18T09:06:37;13.55;;;2.55;;
32705;SDS011;19094;50.972;3.538;2023-02-18T09:09:03;12.32;;;2.25;;
32705;SDS011;19094;50.972;3.538;2023-02-18T09:11:30;14.63;;;2.50;;
32705;SDS011;19094;50.972;3.538;2023-02-18T09:13:55;16.38;;;1.98;;
32705;SDS011;19094;50.972;3.538;2023-02-18T09:16:21;13.35;;;1.77;;
32705;SDS011;19094;50.972;3.538;2023-02-18T09:18:47;14.00;;;2.63;;
32705;SDS011;19094;50.972;3.538;2023-02-18T09:21:14;14.57;;;2.03;;
32705;SDS011;19094;50.972;3.538;2023-02-18T09:23:40;15.48;;;1.80;;
32705;SDS011;19094;50.972;3.538;2023-02-18T09:26:08;12.32;;;2.25;;
32705;SDS011;19094;50.972;3.538;2023-02-18T09:28:35;15.57;;;2.00;;
32705;SDS011;19094;50.972;3.538;2023-02-18T09:31:05;19.20;;;2.40;;
32705;SDS011;19094;50.972;3.538;2023-02-18T09:33:35;14.63;;;2.70;;
32705;SDS011;19094;50.972;3.538;2023-02-18T09:36:02;18.80;;;2.75;;
32705;SDS011;19094;50.972;3.538;2023-02-18T09:38:28;13.57;;;2.20;;
32705;SDS011;19094;50.972;3.538;2023-02-18T09:40:53;15.40;;;2.65;;
32705;SDS011;19094;50.972;3.538;2023-02-18T09:43:27;26.80;;;3.38;;
32705;SDS011;19094;50.972;3.538;2023-02-18T09:45:56;15.90;;;2.95;;
32705;SDS011;19094;50.972;3.538;2023-02-18T09:48:30;11.90;;;3.20;;
32705;SDS011;19094;50.972;3.538;2023-02-18T09:50:58;14.75;;;2.90;;
32705;SDS011;19094;50.972;3.538;2023-02-18T09:53:24;12.32;;;2.30;;
32705;SDS011;19094;50.972;3.538;2023-02-18T09:55:54;18.48;;;3.22;;
32705;SDS011;19094;50.972;3.538;2023-02-18T09:58:25;14.82;;;2.45;;
32705;SDS011;19094;50.972;3.538;2023-02-18T10:03:50;18.10;;;2.30;;
32705;SDS011;19094;50.972;3.538;2023-02-18T10:06:26;19.98;;;3.45;;
32705;SDS011;19094;50.972;3.538;2023-02-18T10:09:02;14.95;;;2.83;;
32705;SDS011;19094;50.972;3.538;2023-02-18T10:12:10;16.80;;;3.50;;
32705;SDS011;19094;50.972;3.538;2023-02-18T10:17:11;15.27;;;2.70;;
32705;SDS011;19094;50.972;3.538;2023-02-18T10:19:40;18.95;;;3.17;;
32705;SDS011;19094;50.972;3.538;2023-02-18T10:22:08;23.55;;;3.08;;
32705;SDS011;19094;50.972;3.538;2023-02-18T10:27:25;18.88;;;2.95;;
32705;SDS011;19094;50.972;3.538;2023-02-18T10:30:00;17.80;;;4.07;;
32705;SDS011;19094;50.972;3.538;2023-02-18T10:32:39;20.73;;;3.13;;
32705;SDS011;19094;50.972;3.538;2023-02-18T10:40:56;20.92;;;3.72;;
32705;SDS011;19094;50.972;3.538;2023-02-18T10:46:22;15.52;;;3.53;;
32705;SDS011;19094;50.972;3.538;2023-02-18T10:49:19;17.48;;;2.97;;
32705;SDS011;19094;50.972;3.538;2023-02-18T10:52:18;15.80;;;3.25;;
32705;SDS011;19094;50.972;3.538;2023-02-18T10:54:58;18.08;;;3.08;;
32705;SDS011;19094;50.972;3.538;2023-02-18T10:57:24;19.55;;;3.05;;
32705;SDS011;19094;50.972;3.538;2023-02-18T10:59:54;14.65;;;2.42;;
32705;SDS011;19094;50.972;3.538;2023-02-18T11:02:22;10.20;;;1.88;;
32705;SDS011;19094;50.972;3.538;2023-02-18T11:04:50;15.80;;;2.58;;
32705;SDS011;19094;50.972;3.538;2023-02-18T11:07:20;9.60;;;1.73;;
32705;SDS011;19094;50.972;3.538;2023-02-18T11:09:48;13.75;;;2.33;;
32705;SDS011;19094;50.972;3.538;2023-02-18T11:12:24;17.73;;;2.78;;
32705;SDS011;19094;50.972;3.538;2023-02-18T11:17:39;18.25;;;2.53;;
32705;SDS011;19094;50.972;3.538;2023-02-18T11:25:30;10.43;;;2.40;;
32705;SDS011;19094;50.972;3.538;2023-02-18T11:30:43;17.83;;;3.25;;
32705;SDS011;19094;50.972;3.538;2023-02-18T11:35:53;12.25;;;2.97;;
32705;SDS011;19094;50.972;3.538;2023-02-18T11:38:37;16.42;;;2.75;;
32705;SDS011;19094;50.972;3.538;2023-02-18T11:41:12;14.10;;;2.70;;
32705;SDS011;19094;50.972;3.538;2023-02-18T11:43:42;12.10;;;2.53;;
32705;SDS011;19094;50.972;3.538;2023-02-18T11:46:19;17.00;;;2.53;;
32705;SDS011;19094;50.972;3.538;2023-02-18T11:48:49;23.20;;;3.22;;
32705;SDS011;19094;50.972;3.538;2023-02-18T11:51:20;17.83;;;3.17;;
32705;SDS011;19094;50.972;3.538;2023-02-18T11:54:02;12.38;;;2.05;;
32705;SDS011;19094;50.972;3.538;2023-02-18T11:57:01;13.48;;;2.75;;
32705;SDS011;19094;50.972;3.538;2023-02-18T11:59:29;8.88;;;2.47;;
32705;SDS011;19094;50.972;3.538;2023-02-18T12:04:39;10.15;;;2.78;;
32705;SDS011;19094;50.972;3.538;2023-02-18T12:07:28;16.27;;;3.10;;
32705;SDS011;19094;50.972;3.538;2023-02-18T12:09:59;18.70;;;2.92;;
32705;SDS011;19094;50.972;3.538;2023-02-18T12:12:36;16.38;;;2.67;;
32705;SDS011;19094;50.972;3.538;2023-02-18T12:15:11;10.32;;;2.33;;
32705;SDS011;19094;50.972;3.538;2023-02-18T12:31:13;9.40;;;2.30;;
32705;SDS011;19094;50.972;3.538;2023-02-18T12:39:08;19.17;;;3.60;;
32705;SDS011;19094;50.972;3.538;2023-02-18T12:44:39;10.60;;;2.50;;
32705;SDS011;19094;50.972;3.538;2023-02-18T13:09:07;18.55;;;3.10;;
32705;SDS011;19094;50.972;3.538;2023-02-18T13:14:26;13.57;;;3.75;;
32705;SDS011;19094;50.972;3.538;2023-02-18T13:16:56;13.05;;;3.28;;
32705;SDS011;19094;50.972;3.538;2023-02-18T13:19:25;12.25;;;2.55;;
32705;SDS011;19094;50.972;3.538;2023-02-18T13:21:57;14.98;;;3.17;;
32705;SDS011;19094;50.972;3.538;2023-02-18T13:27:01;14.13;;;2.95;;
32705;SDS011;19094;50.972;3.538;2023-02-18T13:32:36;20.05;;;4.03;;
32705;SDS011;19094;50.972;3.538;2023-02-18T13:40:12;24.20;;;3.58;;
32705;SDS011;19094;50.972;3.538;2023-02-18T13:42:43;20.30;;;3.92;;
32705;SDS011;19094;50.972;3.538;2023-02-18T13:45:26;17.00;;;3.70;;
32705;SDS011;19094;50.972;3.538;2023-02-18T13:47:57;12.77;;;3.30;;
32705;SDS011;19094;50.972;3.538;2023-02-18T13:55:31;18.42;;;4.65;;
32705;SDS011;19094;50.972;3.538;2023-02-18T13:58:03;17.83;;;3.47;;
32705;SDS011;19094;50.972;3.538;2023-02-18T14:00:36;18.60;;;3.90;;
32705;SDS011;19094;50.972;3.538;2023-02-18T14:03:30;15.93;;;3.63;;
32705;SDS011;19094;50.972;3.538;2023-02-18T14:06:00;16.23;;;4.55;;
32705;SDS011;19094;50.972;3.538;2023-02-18T14:08:36;20.10;;;4.35;;
32705;SDS011;19094;50.972;3.538;2023-02-18T14:16:07;23.55;;;4.93;;
32705;SDS011;19094;50.972;3.538;2023-02-18T14:28:38;28.55;;;5.95;;
32705;SDS011;19094;50.972;3.538;2023-02-18T14:33:36;23.40;;;6.57;;
32705;SDS011;19094;50.972;3.538;2023-02-18T14:36:35;18.48;;;5.25;;
32705;SDS011;19094;50.972;3.538;2023-02-18T14:45:18;16.25;;;3.90;;
32705;SDS011;19094;50.972;3.538;2023-02-18T14:50:29;16.83;;;3.67;;
32705;SDS011;19094;50.972;3.538;2023-02-18T14:52:58;13.73;;;4.25;;
32705;SDS011;19094;50.972;3.538;2023-02-18T14:55:31;17.88;;;3.80;;
32705;SDS011;19094;50.972;3.538;2023-02-18T14:58:02;16.52;;;3.75;;
32705;SDS011;19094;50.972;3.538;2023-02-18T15:00:33;16.83;;;3.80;;
32705;SDS011;19094;50.972;3.538;2023-02-18T15:03:03;14.38;;;2.95;;
32705;SDS011;19094;50.972;3.538;2023-02-18T15:05:30;15.82;;;4.20;;
32705;SDS011;19094;50.972;3.538;2023-02-18T15:08:00;19.27;;;3.38;;
32705;SDS011;19094;50.972;3.538;2023-02-18T15:10:36;12.25;;;2.80;;
32705;SDS011;19094;50.972;3.538;2023-02-18T15:13:04;9.50;;;3.53;;
32705;SDS011;19094;50.972;3.538;2023-02-18T15:15:33;10.25;;;2.72;;
32705;SDS011;19094;50.972;3.538;2023-02-18T15:18:00;14.02;;;4.20;;
32705;SDS011;19094;50.972;3.538;2023-02-18T15:20:28;17.40;;;3.75;;
32705;SDS011;19094;50.972;3.538;2023-02-18T15:22:58;13.35;;;4.03;;
32705;SDS011;19094;50.972;3.538;2023-02-18T15:25:24;11.55;;;4.38;;
32705;SDS011;19094;50.972;3.538;2023-02-18T15:27:50;9.20;;;3.67;;
32705;SDS011;19094;50.972;3.538;2023-02-18T15:32:44;13.82;;;4.85;;
32705;SDS011;19094;50.972;3.538;2023-02-18T15:35:18;9.65;;;4.38;;
32705;SDS011;19094;50.972;3.538;2023-02-18T15:37:50;12.18;;;5.22;;
32705;SDS011;19094;50.972;3.538;2023-02-18T15:40:18;16.63;;;3.83;;
32705;SDS011;19094;50.972;3.538;2023-02-18T15:42:46;14.57;;;4.10;;
32705;SDS011;19094;50.972;3.538;2023-02-18T15:45:16;11.35;;;4.15;;
32705;SDS011;19094;50.972;3.538;2023-02-18T15:47:49;9.18;;;4.50;;
32705;SDS011;19094;50.972;3.538;2023-02-18T15:50:21;13.55;;;4.68;;
32705;SDS011;19094;50.972;3.538;2023-02-18T15:53:04;15.57;;;4.45;;
32705;SDS011;19094;50.972;3.538;2023-02-18T15:55:38;10.52;;;4.32;;
32705;SDS011;19094;50.972;3.538;2023-02-18T15:58:20;13.68;;;4.35;;
32705;SDS011;19094;50.972;3.538;2023-02-18T16:00:51;13.30;;;4.32;;
32705;SDS011;19094;50.972;3.538;2023-02-18T16:03:24;20.58;;;5.22;;
32705;SDS011;19094;50.972;3.538;2023-02-18T16:05:50;13.45;;;4.60;;
32705;SDS011;19094;50.972;3.538;2023-02-18T16:08:31;12.82;;;5.00;;
32705;SDS011;19094;50.972;3.538;2023-02-18T16:11:04;20.63;;;5.80;;
32705;SDS011;19094;50.972;3.538;2023-02-18T16:13:33;11.13;;;5.72;;
32705;SDS011;19094;50.972;3.538;2023-02-18T16:15:59;13.40;;;5.78;;
32705;SDS011;19094;50.972;3.538;2023-02-18T16:21:00;11.80;;;5.57;;
32705;SDS011;19094;50.972;3.538;2023-02-18T16:23:41;13.60;;;6.35;;
32705;SDS011;19094;50.972;3.538;2023-02-18T16:26:09;16.23;;;6.72;;
32705;SDS011;19094;50.972;3.538;2023-02-18T16:28:45;8.55;;;5.00;;
32705;SDS011;19094;50.972;3.538;2023-02-18T16:31:11;18.73;;;7.32;;
32705;SDS011;19094;50.972;3.538;2023-02-18T16:33:37;12.93;;;5.93;;
32705;SDS011;19094;50.972;3.538;2023-02-18T16:36:02;13.88;;;7.13;;
32705;SDS011;19094;50.972;3.538;2023-02-18T16:38:28;14.15;;;6.70;;
32705;SDS011;19094;50.972;3.538;2023-02-18T16:40:54;14.00;;;7.10;;
32705;SDS011;19094;50.972;3.538;2023-02-18T16:43:24;16.88;;;6.03;;
32705;SDS011;19094;50.972;3.538;2023-02-18T16:45:58;16.27;;;7.05;;
32705;SDS011;19094;50.972;3.538;2023-02-18T16:48:48;14.57;;;7.38;;
32705;SDS011;19094;50.972;3.538;2023-02-18T16:51:22;18.08;;;6.90;;
32705;SDS011;19094;50.972;3.538;2023-02-18T16:53:48;21.67;;;7.80;;
32705;SDS011;19094;50.972;3.538;2023-02-18T16:56:15;16.55;;;8.55;;
32705;SDS011;19094;50.972;3.538;2023-02-18T16:58:45;20.35;;;8.63;;
32705;SDS011;19094;50.972;3.538;2023-02-18T17:01:25;18.48;;;8.38;;
32705;SDS011;19094;50.972;3.538;2023-02-18T17:03:56;17.83;;;8.00;;
32705;SDS011;19094;50.972;3.538;2023-02-18T17:06:22;25.83;;;8.55;;
32705;SDS011;19094;50.972;3.538;2023-02-18T17:08:48;23.50;;;8.90;;
32705;SDS011;19094;50.972;3.538;2023-02-18T17:11:16;26.38;;;9.00;;
32705;SDS011;19094;50.972;3.538;2023-02-18T17:13:59;24.00;;;9.85;;
32705;SDS011;19094;50.972;3.538;2023-02-18T17:16:28;23.85;;;9.70;;
32705;SDS011;19094;50.972;3.538;2023-02-18T17:18:55;21.55;;;9.48;;
32705;SDS011;19094;50.972;3.538;2023-02-18T17:21:22;21.23;;;9.95;;
32705;SDS011;19094;50.972;3.538;2023-02-18T17:23:49;25.27;;;10.38;;
32705;SDS011;19094;50.972;3.538;2023-02-18T17:26:19;19.55;;;9.77;;
32705;SDS011;19094;50.972;3.538;2023-02-18T17:28:51;16.33;;;8.25;;
32705;SDS011;19094;50.972;3.538;2023-02-18T17:31:20;27.17;;;11.70;;
32705;SDS011;19094;50.972;3.538;2023-02-18T17:33:50;19.00;;;10.52;;
32705;SDS011;19094;50.972;3.538;2023-02-18T17:36:16;25.65;;;11.18;;